sensor_id;sensor_type;location;lat;lon;timestamp;temperature;humidity
13148;DHT22;6639;50.956;4.242;2023-10-13T00:01:02;24.50;99.90
13148;DHT22;6639;50.956;4.242;2023-10-13T00:03:32;24.60;99.90
13148;DHT22;6639;50.956;4.242;2023-10-13T00:05:59;24.40;99.90
13148;DHT22;6639;50.956;4.242;2023-10-13T00:08:30;24.50;99.90
13148;DHT22;6639;50.956;4.242;2023-10-13T00:10:56;24.40;99.90
13148;DHT22;6639;50.956;4.242;2023-10-13T00:13:26;24.60;99.90
13148;DHT22;6639;50.956;4.242;2023-10-13T00:15:53;24.80;99.90
13148;DHT22;6639;50.956;4.242;2023-10-13T00:18:24;24.80;99.90
13148;DHT22;6639;50.956;4.242;2023-10-13T00:20:53;24.90;99.90
13148;DHT22;6639;50.956;4.242;2023-10-13T00:23:22;24.90;99.90
13148;DHT22;6639;50.956;4.242;2023-10-13T00:25:54;24.90;99.90
13148;DHT22;6639;50.956;4.242;2023-10-13T00:28:25;24.80;99.90
13148;DHT22;6639;50.956;4.242;2023-10-13T00:30:53;24.80;99.90
13148;DHT22;6639;50.956;4.242;2023-10-13T00:33:36;24.80;99.90
13148;DHT22;6639;50.956;4.242;2023-10-13T00:36:03;25.10;99.90
13148;DHT22;6639;50.956;4.242;2023-10-13T00:38:30;25.00;99.90
13148;DHT22;6639;50.956;4.242;2023-10-13T00:40:59;25.10;99.90
13148;DHT22;6639;50.956;4.242;2023-10-13T00:43:44;25.10;99.90
13148;DHT22;6639;50.956;4.242;2023-10-13T00:46:11;25.20;99.90
13148;DHT22;6639;50.956;4.242;2023-10-13T00:48:41;25.50;99.90
13148;DHT22;6639;50.956;4.242;2023-10-13T00:51:10;25.70;99.90
13148;DHT22;6639;50.956;4.242;2023-10-13T00:53:44;25.70;99.90
13148;DHT22;6639;50.956;4.242;2023-10-13T00:56:14;25.60;99.90
13148;DHT22;6639;50.956;4.242;2023-10-13T00:58:53;25.60;99.90
13148;DHT22;6639;50.956;4.242;2023-10-13T01:01:19;25.60;99.90
13148;DHT22;6639;50.956;4.242;2023-10-13T01:03:48;25.80;99.90
13148;DHT22;6639;50.956;4.242;2023-10-13T01:06:18;25.90;99.90
13148;DHT22;6639;50.956;4.242;2023-10-13T01:08:46;25.70;99.90
13148;DHT22;6639;50.956;4.242;2023-10-13T01:11:18;25.50;99.90
13148;DHT22;6639;50.956;4.242;2023-10-13T01:13:49;25.60;99.90
13148;DHT22;6639;50.956;4.242;2023-10-13T01:16:16;25.70;99.90
13148;DHT22;6639;50.956;4.242;2023-10-13T01:18:46;25.70;99.90
13148;DHT22;6639;50.956;4.242;2023-10-13T01:21:15;25.70;99.90
13148;DHT22;6639;50.956;4.242;2023-10-13T01:23:47;25.80;99.90
13148;DHT22;6639;50.956;4.242;2023-10-13T01:26:14;25.70;99.90
13148;DHT22;6639;50.956;4.242;2023-10-13T01:28:47;25.60;99.90
13148;DHT22;6639;50.956;4.242;2023-10-13T01:31:14;25.60;99.90
13148;DHT22;6639;50.956;4.242;2023-10-13T01:33:51;25.70;99.90
13148;DHT22;6639;50.956;4.242;2023-10-13T01:36:22;25.70;99.90
13148;DHT22;6639;50.956;4.242;2023-10-13T01:38:50;25.30;99.90
13148;DHT22;6639;50.956;4.242;2023-10-13T01:41:19;25.30;99.90
13148;DHT22;6639;50.956;4.242;2023-10-13T01:43:46;25.20;99.90
13148;DHT22;6639;50.956;4.242;2023-10-13T01:46:14;25.60;99.90
13148;DHT22;6639;50.956;4.242;2023-10-13T01:48:41;25.30;99.90
13148;DHT22;6639;50.956;4.242;2023-10-13T01:51:09;25.00;99.90
13148;DHT22;6639;50.956;4.242;2023-10-13T01:53:37;25.20;99.90
13148;DHT22;6639;50.956;4.242;2023-10-13T01:56:05;25.30;99.90
13148;DHT22;6639;50.956;4.242;2023-10-13T01:58:37;25.20;99.90
13148;DHT22;6639;50.956;4.242;2023-10-13T02:01:03;25.10;99.90
13148;DHT22;6639;50.956;4.242;2023-10-13T02:03:33;25.00;99.90
13148;DHT22;6639;50.956;4.242;2023-10-13T02:05:59;24.80;99.90
13148;DHT22;6639;50.956;4.242;2023-10-13T02:08:30;25.10;99.90
13148;DHT22;6639;50.956;4.242;2023-10-13T02:10:57;25.30;99.90
13148;DHT22;6639;50.956;4.242;2023-10-13T02:13:28;25.00;99.90
13148;DHT22;6639;50.956;4.242;2023-10-13T02:15:56;24.70;99.90
13148;DHT22;6639;50.956;4.242;2023-10-13T02:18:29;24.90;99.90
13148;DHT22;6639;50.956;4.242;2023-10-13T02:21:03;24.80;99.90
13148;DHT22;6639;50.956;4.242;2023-10-13T02:23:31;24.80;99.90
13148;DHT22;6639;50.956;4.242;2023-10-13T02:25:59;24.70;99.90
13148;DHT22;6639;50.956;4.242;2023-10-13T02:28:30;24.70;99.90
13148;DHT22;6639;50.956;4.242;2023-10-13T02:31:02;24.50;99.90
13148;DHT22;6639;50.956;4.242;2023-10-13T02:33:30;24.60;99.90
13148;DHT22;6639;50.956;4.242;2023-10-13T02:35:56;24.40;99.90
13148;DHT22;6639;50.956;4.242;2023-10-13T02:38:23;24.50;99.90
13148;DHT22;6639;50.956;4.242;2023-10-13T02:41:12;24.40;99.90
13148;DHT22;6639;50.956;4.242;2023-10-13T02:43:46;24.40;99.90
13148;DHT22;6639;50.956;4.242;2023-10-13T02:46:12;24.20;99.90
13148;DHT22;6639;50.956;4.242;2023-10-13T02:48:41;24.00;99.90
13148;DHT22;6639;50.956;4.242;2023-10-13T02:51:11;24.20;99.90
13148;DHT22;6639;50.956;4.242;2023-10-13T02:53:42;24.20;99.90
13148;DHT22;6639;50.956;4.242;2023-10-13T02:56:12;24.20;99.90
13148;DHT22;6639;50.956;4.242;2023-10-13T02:58:40;23.80;99.90
13148;DHT22;6639;50.956;4.242;2023-10-13T03:01:11;23.80;99.90
13148;DHT22;6639;50.956;4.242;2023-10-13T03:03:48;23.60;99.90
13148;DHT22;6639;50.956;4.242;2023-10-13T03:06:17;23.90;99.90
13148;DHT22;6639;50.956;4.242;2023-10-13T03:08:47;24.10;99.90
13148;DHT22;6639;50.956;4.242;2023-10-13T03:11:13;24.10;99.90
13148;DHT22;6639;50.956;4.242;2023-10-13T03:13:42;24.20;99.90
13148;DHT22;6639;50.956;4.242;2023-10-13T03:16:15;24.20;99.90
13148;DHT22;6639;50.956;4.242;2023-10-13T03:18:43;23.80;99.90
13148;DHT22;6639;50.956;4.242;2023-10-13T03:21:20;23.80;99.90
13148;DHT22;6639;50.956;4.242;2023-10-13T03:23:56;23.80;99.90
13148;DHT22;6639;50.956;4.242;2023-10-13T03:26:29;23.70;99.90
13148;DHT22;6639;50.956;4.242;2023-10-13T03:29:00;23.80;99.90
13148;DHT22;6639;50.956;4.242;2023-10-13T03:31:30;24.00;99.90
13148;DHT22;6639;50.956;4.242;2023-10-13T03:34:04;23.90;99.90
13148;DHT22;6639;50.956;4.242;2023-10-13T03:36:30;23.90;99.90
13148;DHT22;6639;50.956;4.242;2023-10-13T03:39:16;23.50;99.90
13148;DHT22;6639;50.956;4.242;2023-10-13T03:41:43;23.30;99.90
13148;DHT22;6639;50.956;4.242;2023-10-13T03:44:11;23.40;99.90
13148;DHT22;6639;50.956;4.242;2023-10-13T03:46:44;23.40;99.90
13148;DHT22;6639;50.956;4.242;2023-10-13T03:49:14;23.30;99.90
13148;DHT22;6639;50.956;4.242;2023-10-13T03:51:41;23.50;99.90
13148;DHT22;6639;50.956;4.242;2023-10-13T03:54:09;23.80;99.90
13148;DHT22;6639;50.956;4.242;2023-10-13T03:56:41;24.00;99.90
13148;DHT22;6639;50.956;4.242;2023-10-13T03:59:10;23.80;99.90
13148;DHT22;6639;50.956;4.242;2023-10-13T04:01:46;23.90;99.90
13148;DHT22;6639;50.956;4.242;2023-10-13T04:04:23;24.10;99.90
13148;DHT22;6639;50.956;4.242;2023-10-13T04:07:00;24.10;99.90
13148;DHT22;6639;50.956;4.242;2023-10-13T04:10:00;23.90;99.90
13148;DHT22;6639;50.956;4.242;2023-10-13T04:12:56;23.90;99.90
13148;DHT22;6639;50.956;4.242;2023-10-13T04:15:42;23.90;99.90
13148;DHT22;6639;50.956;4.242;2023-10-13T04:18:29;24.00;99.90
13148;DHT22;6639;50.956;4.242;2023-10-13T04:21:15;23.90;99.90
13148;DHT22;6639;50.956;4.242;2023-10-13T04:24:06;23.80;99.90
13148;DHT22;6639;50.956;4.242;2023-10-13T04:26:48;24.10;99.90
13148;DHT22;6639;50.956;4.242;2023-10-13T04:29:44;24.10;99.90
13148;DHT22;6639;50.956;4.242;2023-10-13T04:32:17;24.10;99.90
13148;DHT22;6639;50.956;4.242;2023-10-13T04:34:55;24.00;99.90
13148;DHT22;6639;50.956;4.242;2023-10-13T04:37:25;23.80;99.90
13148;DHT22;6639;50.956;4.242;2023-10-13T04:39:55;24.10;99.90
13148;DHT22;6639;50.956;4.242;2023-10-13T04:42:34;24.10;99.90
13148;DHT22;6639;50.956;4.242;2023-10-13T04:45:16;24.10;99.90
13148;DHT22;6639;50.956;4.242;2023-10-13T04:48:04;24.00;99.90
13148;DHT22;6639;50.956;4.242;2023-10-13T04:50:59;24.40;99.90
13148;DHT22;6639;50.956;4.242;2023-10-13T04:53:40;24.40;99.90
13148;DHT22;6639;50.956;4.242;2023-10-13T04:56:21;24.40;99.90
13148;DHT22;6639;50.956;4.242;2023-10-13T04:59:06;24.50;99.90
13148;DHT22;6639;50.956;4.242;2023-10-13T05:01:43;24.50;99.90
13148;DHT22;6639;50.956;4.242;2023-10-13T05:04:46;24.60;99.90
13148;DHT22;6639;50.956;4.242;2023-10-13T05:07:32;24.70;99.90
13148;DHT22;6639;50.956;4.242;2023-10-13T05:10:17;25.00;99.90
13148;DHT22;6639;50.956;4.242;2023-10-13T05:13:01;25.00;99.90
13148;DHT22;6639;50.956;4.242;2023-10-13T05:15:47;24.90;99.90
13148;DHT22;6639;50.956;4.242;2023-10-13T05:18:32;25.00;99.90
13148;DHT22;6639;50.956;4.242;2023-10-13T05:21:17;25.10;99.90
13148;DHT22;6639;50.956;4.242;2023-10-13T05:24:03;25.20;99.90
13148;DHT22;6639;50.956;4.242;2023-10-13T05:26:47;25.10;99.90
13148;DHT22;6639;50.956;4.242;2023-10-13T05:29:31;24.60;99.90
13148;DHT22;6639;50.956;4.242;2023-10-13T05:32:15;24.50;99.90
13148;DHT22;6639;50.956;4.242;2023-10-13T05:34:59;24.50;99.90
13148;DHT22;6639;50.956;4.242;2023-10-13T05:37:44;24.40;99.90
13148;DHT22;6639;50.956;4.242;2023-10-13T05:40:29;23.80;99.90
13148;DHT22;6639;50.956;4.242;2023-10-13T05:43:13;23.60;99.90
13148;DHT22;6639;50.956;4.242;2023-10-13T05:46:02;23.60;99.90
13148;DHT22;6639;50.956;4.242;2023-10-13T05:48:43;23.50;99.90
13148;DHT22;6639;50.956;4.242;2023-10-13T05:51:35;23.20;99.90
13148;DHT22;6639;50.956;4.242;2023-10-13T05:54:12;23.10;99.90
13148;DHT22;6639;50.956;4.242;2023-10-13T05:56:58;23.30;99.90
13148;DHT22;6639;50.956;4.242;2023-10-13T05:59:42;23.40;99.90
13148;DHT22;6639;50.956;4.242;2023-10-13T06:02:26;23.60;99.90
13148;DHT22;6639;50.956;4.242;2023-10-13T06:05:12;23.80;99.90
13148;DHT22;6639;50.956;4.242;2023-10-13T06:07:57;23.90;99.90
13148;DHT22;6639;50.956;4.242;2023-10-13T06:10:49;23.20;99.90
13148;DHT22;6639;50.956;4.242;2023-10-13T06:13:34;23.30;99.90
13148;DHT22;6639;50.956;4.242;2023-10-13T06:16:19;23.50;99.90
13148;DHT22;6639;50.956;4.242;2023-10-13T06:19:03;23.40;99.90
13148;DHT22;6639;50.956;4.242;2023-10-13T06:21:48;23.50;99.90
13148;DHT22;6639;50.956;4.242;2023-10-13T06:24:32;23.60;99.90
13148;DHT22;6639;50.956;4.242;2023-10-13T06:27:16;23.80;99.90
13148;DHT22;6639;50.956;4.242;2023-10-13T06:30:02;23.80;99.90
13148;DHT22;6639;50.956;4.242;2023-10-13T06:32:30;23.90;99.90
13148;DHT22;6639;50.956;4.242;2023-10-13T06:34:58;23.90;99.90
13148;DHT22;6639;50.956;4.242;2023-10-13T06:37:31;24.10;99.90
13148;DHT22;6639;50.956;4.242;2023-10-13T06:40:00;24.00;99.90
13148;DHT22;6639;50.956;4.242;2023-10-13T06:42:32;23.60;99.90
13148;DHT22;6639;50.956;4.242;2023-10-13T06:45:01;23.60;99.90
13148;DHT22;6639;50.956;4.242;2023-10-13T06:47:34;23.60;99.90
13148;DHT22;6639;50.956;4.242;2023-10-13T06:50:06;23.40;99.90
13148;DHT22;6639;50.956;4.242;2023-10-13T06:52:41;23.20;99.90
13148;DHT22;6639;50.956;4.242;2023-10-13T06:55:08;23.40;99.90
13148;DHT22;6639;50.956;4.242;2023-10-13T06:57:36;23.20;99.90
13148;DHT22;6639;50.956;4.242;2023-10-13T07:00:11;23.50;99.90
13148;DHT22;6639;50.956;4.242;2023-10-13T07:02:45;23.40;99.90
13148;DHT22;6639;50.956;4.242;2023-10-13T07:05:14;23.40;99.90
13148;DHT22;6639;50.956;4.242;2023-10-13T07:07:41;23.50;99.90
13148;DHT22;6639;50.956;4.242;2023-10-13T07:10:09;23.70;99.90
13148;DHT22;6639;50.956;4.242;2023-10-13T07:12:37;23.80;99.90
13148;DHT22;6639;50.956;4.242;2023-10-13T07:15:10;24.10;99.90
13148;DHT22;6639;50.956;4.242;2023-10-13T07:17:45;23.80;99.90
13148;DHT22;6639;50.956;4.242;2023-10-13T07:20:12;23.80;99.90
13148;DHT22;6639;50.956;4.242;2023-10-13T07:22:49;23.60;99.90
13148;DHT22;6639;50.956;4.242;2023-10-13T07:25:23;23.90;99.90
13148;DHT22;6639;50.956;4.242;2023-10-13T07:27:51;24.10;99.90
13148;DHT22;6639;50.956;4.242;2023-10-13T07:30:21;24.20;99.90
13148;DHT22;6639;50.956;4.242;2023-10-13T07:32:52;24.30;99.90
13148;DHT22;6639;50.956;4.242;2023-10-13T07:35:21;24.40;99.90
13148;DHT22;6639;50.956;4.242;2023-10-13T07:37:50;24.20;99.90
13148;DHT22;6639;50.956;4.242;2023-10-13T07:40:19;24.10;99.90
13148;DHT22;6639;50.956;4.242;2023-10-13T07:43:05;23.60;99.90
13148;DHT22;6639;50.956;4.242;2023-10-13T07:45:37;23.60;99.90
13148;DHT22;6639;50.956;4.242;2023-10-13T07:48:07;23.60;99.90
13148;DHT22;6639;50.956;4.242;2023-10-13T07:50:38;23.40;99.90
13148;DHT22;6639;50.956;4.242;2023-10-13T07:53:06;23.40;99.90
13148;DHT22;6639;50.956;4.242;2023-10-13T07:55:48;23.70;99.90
13148;DHT22;6639;50.956;4.242;2023-10-13T07:58:20;23.70;99.90
13148;DHT22;6639;50.956;4.242;2023-10-13T08:00:52;24.00;99.90
13148;DHT22;6639;50.956;4.242;2023-10-13T08:03:32;24.10;99.90
13148;DHT22;6639;50.956;4.242;2023-10-13T08:06:00;24.00;99.90
13148;DHT22;6639;50.956;4.242;2023-10-13T08:08:32;23.90;99.90
13148;DHT22;6639;50.956;4.242;2023-10-13T08:11:04;23.90;99.90
13148;DHT22;6639;50.956;4.242;2023-10-13T08:13:50;24.20;99.90
13148;DHT22;6639;50.956;4.242;2023-10-13T08:16:21;24.20;99.90
13148;DHT22;6639;50.956;4.242;2023-10-13T08:18:48;24.20;99.90
13148;DHT22;6639;50.956;4.242;2023-10-13T08:21:15;24.40;99.90
13148;DHT22;6639;50.956;4.242;2023-10-13T08:23:48;24.90;99.90
13148;DHT22;6639;50.956;4.242;2023-10-13T08:26:27;24.90;99.90
13148;DHT22;6639;50.956;4.242;2023-10-13T08:29:04;24.80;99.90
13148;DHT22;6639;50.956;4.242;2023-10-13T08:31:47;24.90;99.90
13148;DHT22;6639;50.956;4.242;2023-10-13T08:34:27;24.30;99.90
13148;DHT22;6639;50.956;4.242;2023-10-13T08:37:04;24.40;99.90
13148;DHT22;6639;50.956;4.242;2023-10-13T08:39:44;24.60;99.90
13148;DHT22;6639;50.956;4.242;2023-10-13T08:42:41;24.30;99.90
13148;DHT22;6639;50.956;4.242;2023-10-13T08:45:36;24.40;99.90
13148;DHT22;6639;50.956;4.242;2023-10-13T08:48:26;24.30;99.90
13148;DHT22;6639;50.956;4.242;2023-10-13T08:50:57;24.40;99.90
13148;DHT22;6639;50.956;4.242;2023-10-13T08:53:34;24.30;99.90
13148;DHT22;6639;50.956;4.242;2023-10-13T08:56:11;24.30;99.90
13148;DHT22;6639;50.956;4.242;2023-10-13T08:58:41;24.40;99.90
13148;DHT22;6639;50.956;4.242;2023-10-13T09:01:32;24.40;99.90
13148;DHT22;6639;50.956;4.242;2023-10-13T09:04:07;24.50;99.90
13148;DHT22;6639;50.956;4.242;2023-10-13T09:06:49;24.80;99.90
13148;DHT22;6639;50.956;4.242;2023-10-13T09:09:44;24.80;99.90
13148;DHT22;6639;50.956;4.242;2023-10-13T09:12:26;24.80;99.90
13148;DHT22;6639;50.956;4.242;2023-10-13T09:15:02;24.80;99.90
13148;DHT22;6639;50.956;4.242;2023-10-13T09:17:32;25.30;99.90
13148;DHT22;6639;50.956;4.242;2023-10-13T09:20:09;25.40;99.90
13148;DHT22;6639;50.956;4.242;2023-10-13T09:22:50;25.10;99.90
13148;DHT22;6639;50.956;4.242;2023-10-13T09:25:34;25.00;99.90
13148;DHT22;6639;50.956;4.242;2023-10-13T09:28:01;25.20;99.90
13148;DHT22;6639;50.956;4.242;2023-10-13T09:30:28;25.00;99.90
13148;DHT22;6639;50.956;4.242;2023-10-13T09:33:00;25.10;99.90
13148;DHT22;6639;50.956;4.242;2023-10-13T09:35:28;25.20;99.90
13148;DHT22;6639;50.956;4.242;2023-10-13T09:37:59;25.20;99.90
13148;DHT22;6639;50.956;4.242;2023-10-13T09:40:28;25.50;99.90
13148;DHT22;6639;50.956;4.242;2023-10-13T09:43:00;25.40;99.90
13148;DHT22;6639;50.956;4.242;2023-10-13T09:45:31;25.10;99.90
13148;DHT22;6639;50.956;4.242;2023-10-13T09:48:03;25.30;99.90
13148;DHT22;6639;50.956;4.242;2023-10-13T09:50:37;25.20;99.90
13148;DHT22;6639;50.956;4.242;2023-10-13T09:53:06;25.00;99.90
13148;DHT22;6639;50.956;4.242;2023-10-13T09:55:38;24.80;99.90
13148;DHT22;6639;50.956;4.242;2023-10-13T09:58:11;25.00;99.90
13148;DHT22;6639;50.956;4.242;2023-10-13T10:00:43;25.00;99.90
13148;DHT22;6639;50.956;4.242;2023-10-13T10:03:29;24.90;99.90
13148;DHT22;6639;50.956;4.242;2023-10-13T10:06:06;25.00;99.90
13148;DHT22;6639;50.956;4.242;2023-10-13T10:08:39;25.30;99.90
13148;DHT22;6639;50.956;4.242;2023-10-13T10:14:16;25.20;99.90
13148;DHT22;6639;50.956;4.242;2023-10-13T10:17:04;25.10;99.90
13148;DHT22;6639;50.956;4.242;2023-10-13T10:19:46;25.10;99.90
13148;DHT22;6639;50.956;4.242;2023-10-13T10:22:25;25.20;99.90
13148;DHT22;6639;50.956;4.242;2023-10-13T10:24:56;25.60;99.90
13148;DHT22;6639;50.956;4.242;2023-10-13T10:27:25;25.50;99.90
13148;DHT22;6639;50.956;4.242;2023-10-13T10:29:55;25.60;99.90
13148;DHT22;6639;50.956;4.242;2023-10-13T10:32:32;25.40;99.90
13148;DHT22;6639;50.956;4.242;2023-10-13T10:35:03;25.50;99.90
13148;DHT22;6639;50.956;4.242;2023-10-13T10:37:42;25.60;99.90
13148;DHT22;6639;50.956;4.242;2023-10-13T10:40:14;25.70;99.90
13148;DHT22;6639;50.956;4.242;2023-10-13T10:42:58;25.70;99.90
13148;DHT22;6639;50.956;4.242;2023-10-13T10:45:26;25.50;99.90
13148;DHT22;6639;50.956;4.242;2023-10-13T10:47:58;25.40;99.90
13148;DHT22;6639;50.956;4.242;2023-10-13T10:50:25;25.40;99.90
13148;DHT22;6639;50.956;4.242;2023-10-13T10:53:03;25.60;99.90
13148;DHT22;6639;50.956;4.242;2023-10-13T10:55:34;25.90;99.90
13148;DHT22;6639;50.956;4.242;2023-10-13T10:58:02;25.80;99.90
13148;DHT22;6639;50.956;4.242;2023-10-13T11:00:32;25.80;99.90
13148;DHT22;6639;50.956;4.242;2023-10-13T11:03:11;25.60;99.90
13148;DHT22;6639;50.956;4.242;2023-10-13T11:05:45;26.00;99.90
13148;DHT22;6639;50.956;4.242;2023-10-13T11:08:24;25.90;99.90
13148;DHT22;6639;50.956;4.242;2023-10-13T11:10:57;26.00;99.90
13148;DHT22;6639;50.956;4.242;2023-10-13T11:13:25;26.10;99.90
13148;DHT22;6639;50.956;4.242;2023-10-13T11:15:56;25.80;99.90
13148;DHT22;6639;50.956;4.242;2023-10-13T11:18:29;25.70;99.90
13148;DHT22;6639;50.956;4.242;2023-10-13T11:20:59;25.80;99.90
13148;DHT22;6639;50.956;4.242;2023-10-13T11:23:34;25.60;99.90
13148;DHT22;6639;50.956;4.242;2023-10-13T11:26:02;25.70;99.90
13148;DHT22;6639;50.956;4.242;2023-10-13T11:28:30;25.70;99.90
13148;DHT22;6639;50.956;4.242;2023-10-13T11:30:59;25.90;99.90
13148;DHT22;6639;50.956;4.242;2023-10-13T11:33:36;26.00;99.90
13148;DHT22;6639;50.956;4.242;2023-10-13T11:36:07;26.00;99.90
13148;DHT22;6639;50.956;4.242;2023-10-13T11:38:42;25.80;99.90
13148;DHT22;6639;50.956;4.242;2023-10-13T11:41:15;25.80;99.90
13148;DHT22;6639;50.956;4.242;2023-10-13T11:43:45;26.00;99.90
13148;DHT22;6639;50.956;4.242;2023-10-13T11:46:38;25.90;99.90
13148;DHT22;6639;50.956;4.242;2023-10-13T11:49:21;26.10;99.90
13148;DHT22;6639;50.956;4.242;2023-10-13T11:51:59;26.20;99.90
13148;DHT22;6639;50.956;4.242;2023-10-13T11:54:44;26.10;99.90
13148;DHT22;6639;50.956;4.242;2023-10-13T11:57:12;26.30;99.90
13148;DHT22;6639;50.956;4.242;2023-10-13T11:59:42;26.40;99.90
13148;DHT22;6639;50.956;4.242;2023-10-13T12:02:20;26.60;99.90
13148;DHT22;6639;50.956;4.242;2023-10-13T12:05:05;26.30;99.90
13148;DHT22;6639;50.956;4.242;2023-10-13T12:07:38;26.30;99.90
13148;DHT22;6639;50.956;4.242;2023-10-13T12:10:23;25.90;99.90
13148;DHT22;6639;50.956;4.242;2023-10-13T12:13:14;26.00;99.90
13148;DHT22;6639;50.956;4.242;2023-10-13T12:15:43;26.10;99.90
13148;DHT22;6639;50.956;4.242;2023-10-13T12:18:18;25.90;99.90
13148;DHT22;6639;50.956;4.242;2023-10-13T12:20:45;26.10;99.90
13148;DHT22;6639;50.956;4.242;2023-10-13T12:23:13;25.90;99.90
13148;DHT22;6639;50.956;4.242;2023-10-13T12:25:47;25.90;99.90
13148;DHT22;6639;50.956;4.242;2023-10-13T12:28:26;25.80;99.90
13148;DHT22;6639;50.956;4.242;2023-10-13T12:30:55;26.10;99.90
13148;DHT22;6639;50.956;4.242;2023-10-13T12:33:23;26.20;99.90
13148;DHT22;6639;50.956;4.242;2023-10-13T12:35:55;26.30;99.90
13148;DHT22;6639;50.956;4.242;2023-10-13T12:38:30;26.20;99.90
13148;DHT22;6639;50.956;4.242;2023-10-13T12:41:18;26.00;99.90
13148;DHT22;6639;50.956;4.242;2023-10-13T12:44:03;26.20;99.90
13148;DHT22;6639;50.956;4.242;2023-10-13T12:46:48;26.20;99.90
13148;DHT22;6639;50.956;4.242;2023-10-13T12:49:33;26.30;99.90
13148;DHT22;6639;50.956;4.242;2023-10-13T12:52:17;26.20;99.90
13148;DHT22;6639;50.956;4.242;2023-10-13T12:54:46;26.30;99.90
13148;DHT22;6639;50.956;4.242;2023-10-13T12:57:26;26.20;99.90
13148;DHT22;6639;50.956;4.242;2023-10-13T12:59:53;26.20;99.90
13148;DHT22;6639;50.956;4.242;2023-10-13T13:02:20;26.20;99.90
13148;DHT22;6639;50.956;4.242;2023-10-13T13:04:47;26.00;99.90
13148;DHT22;6639;50.956;4.242;2023-10-13T13:07:19;26.00;99.90
13148;DHT22;6639;50.956;4.242;2023-10-13T13:09:46;26.10;99.90
13148;DHT22;6639;50.956;4.242;2023-10-13T13:12:14;26.20;99.90
13148;DHT22;6639;50.956;4.242;2023-10-13T13:14:43;26.00;99.90
13148;DHT22;6639;50.956;4.242;2023-10-13T13:17:12;26.10;99.90
13148;DHT22;6639;50.956;4.242;2023-10-13T13:19:38;26.30;99.90
13148;DHT22;6639;50.956;4.242;2023-10-13T13:22:06;26.40;99.90
13148;DHT22;6639;50.956;4.242;2023-10-13T13:24:37;26.40;99.90
13148;DHT22;6639;50.956;4.242;2023-10-13T13:27:09;26.40;99.90
13148;DHT22;6639;50.956;4.242;2023-10-13T13:29:39;26.70;99.90
13148;DHT22;6639;50.956;4.242;2023-10-13T13:32:08;26.80;99.90
13148;DHT22;6639;50.956;4.242;2023-10-13T13:34:43;27.00;99.90
13148;DHT22;6639;50.956;4.242;2023-10-13T13:37:10;26.90;99.90
13148;DHT22;6639;50.956;4.242;2023-10-13T13:39:38;27.00;99.90
13148;DHT22;6639;50.956;4.242;2023-10-13T13:42:09;26.90;99.90
13148;DHT22;6639;50.956;4.242;2023-10-13T13:44:39;27.10;99.90
13148;DHT22;6639;50.956;4.242;2023-10-13T13:47:13;27.10;99.90
13148;DHT22;6639;50.956;4.242;2023-10-13T13:49:40;26.70;99.90
13148;DHT22;6639;50.956;4.242;2023-10-13T13:52:16;26.60;99.90
13148;DHT22;6639;50.956;4.242;2023-10-13T13:54:47;26.70;99.90
13148;DHT22;6639;50.956;4.242;2023-10-13T13:57:14;26.70;99.90
13148;DHT22;6639;50.956;4.242;2023-10-13T13:59:43;27.00;99.90
13148;DHT22;6639;50.956;4.242;2023-10-13T14:02:10;26.90;99.90
13148;DHT22;6639;50.956;4.242;2023-10-13T14:04:47;26.80;99.90
13148;DHT22;6639;50.956;4.242;2023-10-13T14:07:16;26.80;99.90
13148;DHT22;6639;50.956;4.242;2023-10-13T14:09:45;26.80;99.90
13148;DHT22;6639;50.956;4.242;2023-10-13T14:12:17;26.70;99.90
13148;DHT22;6639;50.956;4.242;2023-10-13T14:14:55;26.60;99.90
13148;DHT22;6639;50.956;4.242;2023-10-13T14:17:22;26.60;99.90
13148;DHT22;6639;50.956;4.242;2023-10-13T14:19:56;26.60;99.90
13148;DHT22;6639;50.956;4.242;2023-10-13T14:22:23;26.50;99.90
13148;DHT22;6639;50.956;4.242;2023-10-13T14:24:51;26.60;99.90
13148;DHT22;6639;50.956;4.242;2023-10-13T14:27:21;26.70;99.90
13148;DHT22;6639;50.956;4.242;2023-10-13T14:29:50;26.70;99.90
13148;DHT22;6639;50.956;4.242;2023-10-13T14:32:19;26.70;99.90
13148;DHT22;6639;50.956;4.242;2023-10-13T14:34:50;26.60;99.90
13148;DHT22;6639;50.956;4.242;2023-10-13T14:37:23;26.70;99.90
13148;DHT22;6639;50.956;4.242;2023-10-13T14:39:54;26.80;99.90
13148;DHT22;6639;50.956;4.242;2023-10-13T14:42:23;26.60;99.90
13148;DHT22;6639;50.956;4.242;2023-10-13T14:44:50;26.50;99.90
13148;DHT22;6639;50.956;4.242;2023-10-13T14:47:21;26.30;99.90
13148;DHT22;6639;50.956;4.242;2023-10-13T14:49:51;26.40;99.90
13148;DHT22;6639;50.956;4.242;2023-10-13T14:52:20;26.50;99.90
13148;DHT22;6639;50.956;4.242;2023-10-13T14:54:48;26.90;99.90
13148;DHT22;6639;50.956;4.242;2023-10-13T14:57:21;26.70;99.90
13148;DHT22;6639;50.956;4.242;2023-10-13T14:59:51;26.90;99.90
13148;DHT22;6639;50.956;4.242;2023-10-13T15:02:17;26.80;99.90
13148;DHT22;6639;50.956;4.242;2023-10-13T15:04:45;26.60;99.90
13148;DHT22;6639;50.956;4.242;2023-10-13T15:07:14;26.70;99.90
13148;DHT22;6639;50.956;4.242;2023-10-13T15:09:42;26.50;99.90
13148;DHT22;6639;50.956;4.242;2023-10-13T15:12:10;26.60;99.90
13148;DHT22;6639;50.956;4.242;2023-10-13T15:14:38;26.70;99.90
13148;DHT22;6639;50.956;4.242;2023-10-13T15:17:05;26.40;99.90
13148;DHT22;6639;50.956;4.242;2023-10-13T15:19:32;26.50;99.90
13148;DHT22;6639;50.956;4.242;2023-10-13T15:22:02;26.60;99.90
13148;DHT22;6639;50.956;4.242;2023-10-13T15:24:32;26.30;99.90
13148;DHT22;6639;50.956;4.242;2023-10-13T15:27:02;26.40;99.90
13148;DHT22;6639;50.956;4.242;2023-10-13T15:29:35;26.20;99.90
13148;DHT22;6639;50.956;4.242;2023-10-13T15:32:02;26.10;99.90
13148;DHT22;6639;50.956;4.242;2023-10-13T15:34:46;26.10;99.90
13148;DHT22;6639;50.956;4.242;2023-10-13T15:37:13;26.20;99.90
13148;DHT22;6639;50.956;4.242;2023-10-13T15:39:40;26.10;99.90
13148;DHT22;6639;50.956;4.242;2023-10-13T15:42:07;26.10;99.90
13148;DHT22;6639;50.956;4.242;2023-10-13T15:44:36;26.00;99.90
13148;DHT22;6639;50.956;4.242;2023-10-13T15:47:03;26.40;99.90
13148;DHT22;6639;50.956;4.242;2023-10-13T15:49:30;26.40;99.90
13148;DHT22;6639;50.956;4.242;2023-10-13T15:51:59;26.20;99.90
13148;DHT22;6639;50.956;4.242;2023-10-13T15:54:26;26.10;99.90
13148;DHT22;6639;50.956;4.242;2023-10-13T15:56:53;25.60;99.90
13148;DHT22;6639;50.956;4.242;2023-10-13T15:59:20;25.40;99.90
13148;DHT22;6639;50.956;4.242;2023-10-13T16:01:50;25.20;99.90
13148;DHT22;6639;50.956;4.242;2023-10-13T16:04:22;25.20;99.90
13148;DHT22;6639;50.956;4.242;2023-10-13T16:06:49;25.30;99.90
13148;DHT22;6639;50.956;4.242;2023-10-13T16:09:16;25.80;99.90
13148;DHT22;6639;50.956;4.242;2023-10-13T16:11:49;25.60;99.90
13148;DHT22;6639;50.956;4.242;2023-10-13T16:14:17;25.70;99.90
13148;DHT22;6639;50.956;4.242;2023-10-13T16:16:45;25.50;99.90
13148;DHT22;6639;50.956;4.242;2023-10-13T16:19:15;25.30;99.90
13148;DHT22;6639;50.956;4.242;2023-10-13T16:21:43;25.40;99.90
13148;DHT22;6639;50.956;4.242;2023-10-13T16:24:11;25.70;99.90
13148;DHT22;6639;50.956;4.242;2023-10-13T16:26:37;26.20;99.90
13148;DHT22;6639;50.956;4.242;2023-10-13T16:29:06;26.20;99.90